sensor_id;sensor_type;location;lat;lon;timestamp;P1;durP1;ratioP1;P2;durP2;ratioP2
50092;SDS011;35974;47.752;10.290;2022-11-20T00:01:26;5.50;;;2.70;;
50092;SDS011;35974;47.752;10.290;2022-11-20T00:03:53;3.72;;;2.97;;
50092;SDS011;35974;47.752;10.290;2022-11-20T00:06:21;4.03;;;2.70;;
50092;SDS011;35974;47.752;10.290;2022-11-20T00:08:48;3.58;;;2.70;;
50092;SDS011;35974;47.752;10.290;2022-11-20T00:11:17;4.18;;;2.85;;
50092;SDS011;35974;47.752;10.290;2022-11-20T00:13:45;3.95;;;2.60;;
50092;SDS011;35974;47.752;10.290;2022-11-20T00:16:14;4.72;;;2.85;;
50092;SDS011;35974;47.752;10.290;2022-11-20T00:18:42;4.07;;;2.60;;
50092;SDS011;35974;47.752;10.290;2022-11-20T00:21:12;4.75;;;2.70;;
50092;SDS011;35974;47.752;10.290;2022-11-20T00:23:41;4.78;;;2.70;;
50092;SDS011;35974;47.752;10.290;2022-11-20T00:26:12;7.22;;;3.03;;
50092;SDS011;35974;47.752;10.290;2022-11-20T00:28:51;4.72;;;2.90;;
50092;SDS011;35974;47.752;10.290;2022-11-20T00:31:22;6.03;;;2.90;;
50092;SDS011;35974;47.752;10.290;2022-11-20T00:33:49;8.02;;;2.72;;
50092;SDS011;35974;47.752;10.290;2022-11-20T00:38:51;3.88;;;2.30;;
50092;SDS011;35974;47.752;10.290;2022-11-20T00:41:18;4.90;;;3.00;;
50092;SDS011;35974;47.752;10.290;2022-11-20T00:43:45;4.18;;;2.70;;
50092;SDS011;35974;47.752;10.290;2022-11-20T00:46:18;4.22;;;2.97;;
50092;SDS011;35974;47.752;10.290;2022-11-20T00:48:46;5.47;;;3.15;;
50092;SDS011;35974;47.752;10.290;2022-11-20T00:51:14;6.50;;;3.20;;
50092;SDS011;35974;47.752;10.290;2022-11-20T00:53:45;13.25;;;6.80;;
50092;SDS011;35974;47.752;10.290;2022-11-20T00:56:13;16.20;;;8.23;;
50092;SDS011;35974;47.752;10.290;2022-11-20T00:58:42;16.25;;;6.95;;
50092;SDS011;35974;47.752;10.290;2022-11-20T01:01:11;26.42;;;11.75;;
50092;SDS011;35974;47.752;10.290;2022-11-20T01:03:39;26.48;;;12.52;;
50092;SDS011;35974;47.752;10.290;2022-11-20T01:06:10;23.85;;;11.70;;
50092;SDS011;35974;47.752;10.290;2022-11-20T01:08:41;25.83;;;9.95;;
50092;SDS011;35974;47.752;10.290;2022-11-20T01:11:10;12.30;;;6.30;;
50092;SDS011;35974;47.752;10.290;2022-11-20T01:13:38;8.57;;;5.47;;
50092;SDS011;35974;47.752;10.290;2022-11-20T01:16:06;8.40;;;5.20;;
50092;SDS011;35974;47.752;10.290;2022-11-20T01:18:38;9.07;;;6.25;;
50092;SDS011;35974;47.752;10.290;2022-11-20T01:21:11;10.90;;;6.68;;
50092;SDS011;35974;47.752;10.290;2022-11-20T01:23:40;10.65;;;6.30;;
50092;SDS011;35974;47.752;10.290;2022-11-20T01:26:09;10.50;;;6.32;;
50092;SDS011;35974;47.752;10.290;2022-11-20T01:28:38;9.40;;;6.00;;
50092;SDS011;35974;47.752;10.290;2022-11-20T01:34:04;12.15;;;6.45;;
50092;SDS011;35974;47.752;10.290;2022-11-20T01:36:33;8.93;;;5.53;;
50092;SDS011;35974;47.752;10.290;2022-11-20T01:39:03;9.25;;;5.85;;
50092;SDS011;35974;47.752;10.290;2022-11-20T01:41:40;10.07;;;6.07;;
50092;SDS011;35974;47.752;10.290;2022-11-20T01:47:51;8.65;;;5.70;;
50092;SDS011;35974;47.752;10.290;2022-11-20T01:52:52;10.50;;;6.03;;
50092;SDS011;35974;47.752;10.290;2022-11-20T01:55:39;9.98;;;5.78;;
50092;SDS011;35974;47.752;10.290;2022-11-20T01:58:11;9.05;;;5.93;;
50092;SDS011;35974;47.752;10.290;2022-11-20T02:00:38;9.10;;;5.35;;
50092;SDS011;35974;47.752;10.290;2022-11-20T02:03:12;7.63;;;5.28;;
50092;SDS011;35974;47.752;10.290;2022-11-20T02:05:47;6.22;;;4.95;;
50092;SDS011;35974;47.752;10.290;2022-11-20T02:08:18;8.63;;;5.07;;
50092;SDS011;35974;47.752;10.290;2022-11-20T02:10:45;7.05;;;5.00;;
50092;SDS011;35974;47.752;10.290;2022-11-20T02:13:12;8.80;;;6.13;;
50092;SDS011;35974;47.752;10.290;2022-11-20T02:15:57;10.40;;;5.68;;
50092;SDS011;35974;47.752;10.290;2022-11-20T02:18:24;9.13;;;5.57;;
50092;SDS011;35974;47.752;10.290;2022-11-20T02:20:53;7.45;;;5.05;;
50092;SDS011;35974;47.752;10.290;2022-11-20T02:23:26;11.73;;;5.95;;
50092;SDS011;35974;47.752;10.290;2022-11-20T02:25:56;9.68;;;5.18;;
50092;SDS011;35974;47.752;10.290;2022-11-20T02:28:27;8.65;;;5.30;;
50092;SDS011;35974;47.752;10.290;2022-11-20T02:30:54;8.02;;;5.22;;
50092;SDS011;35974;47.752;10.290;2022-11-20T02:33:20;7.03;;;5.40;;
50092;SDS011;35974;47.752;10.290;2022-11-20T02:35:47;7.88;;;5.43;;
50092;SDS011;35974;47.752;10.290;2022-11-20T02:38:14;6.72;;;4.95;;
50092;SDS011;35974;47.752;10.290;2022-11-20T02:43:10;6.75;;;4.90;;
50092;SDS011;35974;47.752;10.290;2022-11-20T02:45:37;7.47;;;4.90;;
50092;SDS011;35974;47.752;10.290;2022-11-20T02:48:03;6.82;;;4.72;;
50092;SDS011;35974;47.752;10.290;2022-11-20T02:50:49;12.60;;;4.78;;
50092;SDS011;35974;47.752;10.290;2022-11-20T02:53:16;6.30;;;4.60;;
50092;SDS011;35974;47.752;10.290;2022-11-20T02:55:42;7.18;;;5.00;;
50092;SDS011;35974;47.752;10.290;2022-11-20T02:58:09;6.15;;;4.72;;
50092;SDS011;35974;47.752;10.290;2022-11-20T03:00:42;6.97;;;5.00;;
50092;SDS011;35974;47.752;10.290;2022-11-20T03:03:09;8.63;;;4.93;;
50092;SDS011;35974;47.752;10.290;2022-11-20T03:05:35;8.07;;;5.30;;
50092;SDS011;35974;47.752;10.290;2022-11-20T03:08:01;6.63;;;4.53;;
50092;SDS011;35974;47.752;10.290;2022-11-20T03:10:28;7.32;;;4.80;;
50092;SDS011;35974;47.752;10.290;2022-11-20T03:12:54;7.88;;;5.32;;
50092;SDS011;35974;47.752;10.290;2022-11-20T03:17:54;9.00;;;5.53;;
50092;SDS011;35974;47.752;10.290;2022-11-20T03:20:21;8.05;;;5.00;;
50092;SDS011;35974;47.752;10.290;2022-11-20T03:22:48;7.32;;;5.00;;
50092;SDS011;35974;47.752;10.290;2022-11-20T03:25:15;6.47;;;4.85;;
50092;SDS011;35974;47.752;10.290;2022-11-20T03:27:41;7.38;;;4.95;;
50092;SDS011;35974;47.752;10.290;2022-11-20T03:30:15;7.82;;;4.88;;
50092;SDS011;35974;47.752;10.290;2022-11-20T03:32:41;9.15;;;4.78;;
50092;SDS011;35974;47.752;10.290;2022-11-20T03:35:08;6.82;;;4.28;;
50092;SDS011;35974;47.752;10.290;2022-11-20T03:37:42;6.47;;;4.47;;
50092;SDS011;35974;47.752;10.290;2022-11-20T03:40:08;7.13;;;4.30;;
50092;SDS011;35974;47.752;10.290;2022-11-20T03:42:35;5.75;;;4.32;;
50092;SDS011;35974;47.752;10.290;2022-11-20T03:45:11;7.57;;;4.80;;
50092;SDS011;35974;47.752;10.290;2022-11-20T03:47:43;7.78;;;4.82;;
50092;SDS011;35974;47.752;10.290;2022-11-20T03:50:10;9.40;;;4.85;;
50092;SDS011;35974;47.752;10.290;2022-11-20T03:52:41;7.00;;;4.45;;
50092;SDS011;35974;47.752;10.290;2022-11-20T03:55:07;7.38;;;4.47;;
50092;SDS011;35974;47.752;10.290;2022-11-20T03:57:34;7.50;;;4.85;;
50092;SDS011;35974;47.752;10.290;2022-11-20T04:02:36;5.72;;;3.72;;
50092;SDS011;35974;47.752;10.290;2022-11-20T04:05:02;5.95;;;4.20;;
50092;SDS011;35974;47.752;10.290;2022-11-20T04:07:29;7.30;;;4.55;;
50092;SDS011;35974;47.752;10.290;2022-11-20T04:10:04;6.32;;;4.43;;
50092;SDS011;35974;47.752;10.290;2022-11-20T04:12:31;7.13;;;4.53;;
50092;SDS011;35974;47.752;10.290;2022-11-20T04:14:59;7.55;;;5.05;;
50092;SDS011;35974;47.752;10.290;2022-11-20T04:17:26;9.70;;;5.18;;
50092;SDS011;35974;47.752;10.290;2022-11-20T04:19:52;9.15;;;5.60;;
50092;SDS011;35974;47.752;10.290;2022-11-20T04:22:18;8.20;;;5.20;;
50092;SDS011;35974;47.752;10.290;2022-11-20T04:24:45;6.90;;;4.70;;
50092;SDS011;35974;47.752;10.290;2022-11-20T04:27:11;11.02;;;5.15;;
50092;SDS011;35974;47.752;10.290;2022-11-20T04:29:38;8.00;;;4.50;;
50092;SDS011;35974;47.752;10.290;2022-11-20T04:32:04;6.85;;;4.88;;
50092;SDS011;35974;47.752;10.290;2022-11-20T04:34:31;7.15;;;5.15;;
50092;SDS011;35974;47.752;10.290;2022-11-20T04:36:57;6.90;;;4.85;;
50092;SDS011;35974;47.752;10.290;2022-11-20T04:39:24;7.75;;;5.38;;
50092;SDS011;35974;47.752;10.290;2022-11-20T04:41:50;6.95;;;4.30;;
50092;SDS011;35974;47.752;10.290;2022-11-20T04:47:27;6.05;;;4.25;;
50092;SDS011;35974;47.752;10.290;2022-11-20T04:49:54;7.88;;;4.20;;
50092;SDS011;35974;47.752;10.290;2022-11-20T04:52:21;5.82;;;4.00;;
50092;SDS011;35974;47.752;10.290;2022-11-20T04:54:47;6.53;;;3.72;;
50092;SDS011;35974;47.752;10.290;2022-11-20T04:57:13;4.60;;;3.50;;
50092;SDS011;35974;47.752;10.290;2022-11-20T04:59:40;5.88;;;3.85;;
50092;SDS011;35974;47.752;10.290;2022-11-20T05:02:07;7.30;;;3.97;;
50092;SDS011;35974;47.752;10.290;2022-11-20T05:04:34;8.38;;;4.18;;
50092;SDS011;35974;47.752;10.290;2022-11-20T05:07:00;5.20;;;3.55;;
50092;SDS011;35974;47.752;10.290;2022-11-20T05:09:27;5.82;;;3.75;;
50092;SDS011;35974;47.752;10.290;2022-11-20T05:11:53;6.50;;;3.60;;
50092;SDS011;35974;47.752;10.290;2022-11-20T05:14:19;6.55;;;4.05;;
50092;SDS011;35974;47.752;10.290;2022-11-20T05:16:46;7.57;;;3.67;;
50092;SDS011;35974;47.752;10.290;2022-11-20T05:19:12;5.32;;;3.47;;
50092;SDS011;35974;47.752;10.290;2022-11-20T05:21:39;4.28;;;3.58;;
50092;SDS011;35974;47.752;10.290;2022-11-20T05:24:05;7.35;;;3.53;;
50092;SDS011;35974;47.752;10.290;2022-11-20T05:26:33;4.18;;;3.00;;
50092;SDS011;35974;47.752;10.290;2022-11-20T05:28:59;4.65;;;3.05;;
50092;SDS011;35974;47.752;10.290;2022-11-20T05:31:25;4.88;;;3.13;;
50092;SDS011;35974;47.752;10.290;2022-11-20T05:33:55;4.45;;;3.10;;
50092;SDS011;35974;47.752;10.290;2022-11-20T05:36:23;3.35;;;2.70;;
50092;SDS011;35974;47.752;10.290;2022-11-20T05:38:49;5.80;;;2.83;;
50092;SDS011;35974;47.752;10.290;2022-11-20T05:41:19;5.97;;;2.85;;
50092;SDS011;35974;47.752;10.290;2022-11-20T05:43:47;4.13;;;2.78;;
50092;SDS011;35974;47.752;10.290;2022-11-20T05:46:17;5.20;;;2.92;;
50092;SDS011;35974;47.752;10.290;2022-11-20T05:48:53;4.10;;;2.40;;
50092;SDS011;35974;47.752;10.290;2022-11-20T05:51:19;7.80;;;2.92;;
50092;SDS011;35974;47.752;10.290;2022-11-20T05:53:46;5.22;;;2.92;;
50092;SDS011;35974;47.752;10.290;2022-11-20T05:56:18;6.80;;;2.88;;
50092;SDS011;35974;47.752;10.290;2022-11-20T05:58:46;3.88;;;2.70;;
50092;SDS011;35974;47.752;10.290;2022-11-20T06:01:24;5.15;;;3.10;;
50092;SDS011;35974;47.752;10.290;2022-11-20T06:03:52;4.93;;;3.08;;
50092;SDS011;35974;47.752;10.290;2022-11-20T06:06:19;4.70;;;3.03;;
50092;SDS011;35974;47.752;10.290;2022-11-20T06:08:46;5.38;;;3.38;;
50092;SDS011;35974;47.752;10.290;2022-11-20T06:11:13;4.85;;;3.05;;
50092;SDS011;35974;47.752;10.290;2022-11-20T06:13:40;5.63;;;2.78;;
50092;SDS011;35974;47.752;10.290;2022-11-20T06:16:08;6.15;;;3.20;;
50092;SDS011;35974;47.752;10.290;2022-11-20T06:18:36;5.55;;;2.72;;
50092;SDS011;35974;47.752;10.290;2022-11-20T06:21:07;3.88;;;2.90;;
50092;SDS011;35974;47.752;10.290;2022-11-20T06:23:38;4.22;;;3.08;;
50092;SDS011;35974;47.752;10.290;2022-11-20T06:29:18;6.10;;;3.10;;
50092;SDS011;35974;47.752;10.290;2022-11-20T06:31:45;5.80;;;3.28;;
50092;SDS011;35974;47.752;10.290;2022-11-20T06:34:11;4.30;;;2.95;;
50092;SDS011;35974;47.752;10.290;2022-11-20T06:36:38;3.90;;;3.00;;
50092;SDS011;35974;47.752;10.290;2022-11-20T06:39:04;4.85;;;2.95;;
50092;SDS011;35974;47.752;10.290;2022-11-20T06:41:31;4.95;;;2.97;;
50092;SDS011;35974;47.752;10.290;2022-11-20T06:44:06;4.15;;;2.65;;
50092;SDS011;35974;47.752;10.290;2022-11-20T06:46:38;5.40;;;3.03;;
50092;SDS011;35974;47.752;10.290;2022-11-20T06:49:04;4.30;;;3.00;;
50092;SDS011;35974;47.752;10.290;2022-11-20T06:51:31;4.55;;;2.90;;
50092;SDS011;35974;47.752;10.290;2022-11-20T06:53:59;4.10;;;2.65;;
50092;SDS011;35974;47.752;10.290;2022-11-20T06:56:27;6.07;;;2.88;;
50092;SDS011;35974;47.752;10.290;2022-11-20T06:58:54;4.53;;;2.80;;
50092;SDS011;35974;47.752;10.290;2022-11-20T07:01:20;4.45;;;2.70;;
50092;SDS011;35974;47.752;10.290;2022-11-20T07:03:48;3.35;;;2.42;;
50092;SDS011;35974;47.752;10.290;2022-11-20T07:06:19;3.40;;;2.30;;
50092;SDS011;35974;47.752;10.290;2022-11-20T07:08:46;5.72;;;2.78;;
50092;SDS011;35974;47.752;10.290;2022-11-20T07:11:13;4.85;;;2.50;;
50092;SDS011;35974;47.752;10.290;2022-11-20T07:13:39;3.30;;;2.40;;
50092;SDS011;35974;47.752;10.290;2022-11-20T07:16:06;4.43;;;2.30;;
50092;SDS011;35974;47.752;10.290;2022-11-20T07:18:34;4.70;;;2.58;;
50092;SDS011;35974;47.752;10.290;2022-11-20T07:21:02;5.40;;;2.40;;
50092;SDS011;35974;47.752;10.290;2022-11-20T07:23:30;4.15;;;2.35;;
50092;SDS011;35974;47.752;10.290;2022-11-20T07:26:02;4.85;;;2.72;;
50092;SDS011;35974;47.752;10.290;2022-11-20T07:28:30;5.30;;;2.50;;
50092;SDS011;35974;47.752;10.290;2022-11-20T07:30:57;4.50;;;2.53;;
50092;SDS011;35974;47.752;10.290;2022-11-20T07:33:26;4.55;;;2.67;;
50092;SDS011;35974;47.752;10.290;2022-11-20T07:35:53;4.07;;;2.85;;
50092;SDS011;35974;47.752;10.290;2022-11-20T07:38:19;18.23;;;8.23;;
50092;SDS011;35974;47.752;10.290;2022-11-20T07:43:20;27.67;;;8.73;;
50092;SDS011;35974;47.752;10.290;2022-11-20T07:45:48;13.35;;;5.53;;
50092;SDS011;35974;47.752;10.290;2022-11-20T07:48:15;3.67;;;2.70;;
50092;SDS011;35974;47.752;10.290;2022-11-20T07:50:47;5.82;;;3.75;;
50092;SDS011;35974;47.752;10.290;2022-11-20T07:55:49;7.25;;;3.53;;
50092;SDS011;35974;47.752;10.290;2022-11-20T07:58:20;7.15;;;4.40;;
50092;SDS011;35974;47.752;10.290;2022-11-20T08:03:33;4.95;;;3.35;;
50092;SDS011;35974;47.752;10.290;2022-11-20T08:08:35;4.50;;;2.80;;
50092;SDS011;35974;47.752;10.290;2022-11-20T08:11:08;6.90;;;2.80;;
50092;SDS011;35974;47.752;10.290;2022-11-20T08:13:55;3.25;;;2.75;;
50092;SDS011;35974;47.752;10.290;2022-11-20T08:16:40;4.40;;;2.72;;
50092;SDS011;35974;47.752;10.290;2022-11-20T08:19:13;3.58;;;2.72;;
50092;SDS011;35974;47.752;10.290;2022-11-20T08:21:41;4.50;;;2.70;;
50092;SDS011;35974;47.752;10.290;2022-11-20T08:24:07;4.70;;;3.08;;
50092;SDS011;35974;47.752;10.290;2022-11-20T08:26:35;7.10;;;3.20;;
50092;SDS011;35974;47.752;10.290;2022-11-20T08:29:03;3.00;;;2.50;;
50092;SDS011;35974;47.752;10.290;2022-11-20T08:31:30;5.53;;;2.65;;
50092;SDS011;35974;47.752;10.290;2022-11-20T08:34:13;4.50;;;2.80;;
50092;SDS011;35974;47.752;10.290;2022-11-20T08:36:44;3.50;;;2.65;;
50092;SDS011;35974;47.752;10.290;2022-11-20T08:39:11;4.10;;;2.63;;
50092;SDS011;35974;47.752;10.290;2022-11-20T08:41:38;4.22;;;2.92;;
50092;SDS011;35974;47.752;10.290;2022-11-20T08:44:06;6.95;;;3.70;;
50092;SDS011;35974;47.752;10.290;2022-11-20T08:46:35;3.55;;;2.65;;
50092;SDS011;35974;47.752;10.290;2022-11-20T08:51:34;5.38;;;2.50;;
50092;SDS011;35974;47.752;10.290;2022-11-20T08:54:01;17.90;;;8.23;;
50092;SDS011;35974;47.752;10.290;2022-11-20T08:56:30;4.93;;;2.72;;
50092;SDS011;35974;47.752;10.290;2022-11-20T08:58:56;11.00;;;6.05;;
50092;SDS011;35974;47.752;10.290;2022-11-20T09:01:53;4.80;;;2.83;;
50092;SDS011;35974;47.752;10.290;2022-11-20T09:04:19;4.22;;;2.83;;
50092;SDS011;35974;47.752;10.290;2022-11-20T09:06:46;6.85;;;3.25;;
50092;SDS011;35974;47.752;10.290;2022-11-20T09:09:17;5.53;;;3.10;;
50092;SDS011;35974;47.752;10.290;2022-11-20T09:11:51;7.22;;;3.45;;
50092;SDS011;35974;47.752;10.290;2022-11-20T09:14:21;10.02;;;6.50;;
50092;SDS011;35974;47.752;10.290;2022-11-20T09:16:50;3.88;;;2.50;;
50092;SDS011;35974;47.752;10.290;2022-11-20T09:19:17;2.92;;;2.30;;
50092;SDS011;35974;47.752;10.290;2022-11-20T09:22:03;5.38;;;3.90;;
50092;SDS011;35974;47.752;10.290;2022-11-20T09:24:30;6.57;;;3.35;;
50092;SDS011;35974;47.752;10.290;2022-11-20T09:27:00;3.60;;;2.22;;
50092;SDS011;35974;47.752;10.290;2022-11-20T09:29:27;2.63;;;1.98;;
50092;SDS011;35974;47.752;10.290;2022-11-20T09:31:54;2.83;;;2.28;;
50092;SDS011;35974;47.752;10.290;2022-11-20T09:34:20;4.75;;;2.50;;
50092;SDS011;35974;47.752;10.290;2022-11-20T09:36:47;5.30;;;2.42;;
50092;SDS011;35974;47.752;10.290;2022-11-20T09:42:03;3.13;;;1.92;;
50092;SDS011;35974;47.752;10.290;2022-11-20T09:44:47;2.65;;;1.63;;
50092;SDS011;35974;47.752;10.290;2022-11-20T09:47:29;3.25;;;2.22;;
50092;SDS011;35974;47.752;10.290;2022-11-20T09:53:07;3.60;;;1.77;;
50092;SDS011;35974;47.752;10.290;2022-11-20T09:55:56;2.33;;;1.80;;
50092;SDS011;35974;47.752;10.290;2022-11-20T09:58:39;2.60;;;1.98;;
50092;SDS011;35974;47.752;10.290;2022-11-20T10:01:12;4.55;;;2.17;;
50092;SDS011;35974;47.752;10.290;2022-11-20T10:06:31;2.75;;;1.90;;
50092;SDS011;35974;47.752;10.290;2022-11-20T10:09:39;4.60;;;1.90;;
50092;SDS011;35974;47.752;10.290;2022-11-20T10:12:32;2.97;;;1.98;;
50092;SDS011;35974;47.752;10.290;2022-11-20T10:32:11;5.43;;;1.85;;
50092;SDS011;35974;47.752;10.290;2022-11-20T10:34:58;3.35;;;2.28;;
50092;SDS011;35974;47.752;10.290;2022-11-20T10:37:46;2.90;;;1.63;;
50092;SDS011;35974;47.752;10.290;2022-11-20T10:43:10;2.30;;;1.73;;
50092;SDS011;35974;47.752;10.290;2022-11-20T10:48:28;1.65;;;1.50;;
50092;SDS011;35974;47.752;10.290;2022-11-20T10:59:32;2.33;;;2.00;;
50092;SDS011;35974;47.752;10.290;2022-11-20T11:02:31;2.50;;;1.70;;
50092;SDS011;35974;47.752;10.290;2022-11-20T11:04:57;1.70;;;1.60;;
50092;SDS011;35974;47.752;10.290;2022-11-20T11:07:29;2.95;;;1.90;;
50092;SDS011;35974;47.752;10.290;2022-11-20T11:12:28;4.72;;;1.70;;
50092;SDS011;35974;47.752;10.290;2022-11-20T11:14:57;4.50;;;2.20;;
50092;SDS011;35974;47.752;10.290;2022-11-20T11:17:25;2.20;;;1.65;;
50092;SDS011;35974;47.752;10.290;2022-11-20T11:25:21;1.90;;;1.67;;
50092;SDS011;35974;47.752;10.290;2022-11-20T11:27:50;3.35;;;2.00;;
50092;SDS011;35974;47.752;10.290;2022-11-20T11:30:18;3.13;;;1.80;;
50092;SDS011;35974;47.752;10.290;2022-11-20T11:32:46;2.88;;;1.52;;
50092;SDS011;35974;47.752;10.290;2022-11-20T11:35:25;2.47;;;1.70;;
50092;SDS011;35974;47.752;10.290;2022-11-20T11:40:45;2.35;;;1.70;;
50092;SDS011;35974;47.752;10.290;2022-11-20T11:43:20;2.35;;;1.60;;
50092;SDS011;35974;47.752;10.290;2022-11-20T11:46:24;5.97;;;1.50;;
50092;SDS011;35974;47.752;10.290;2022-11-20T12:05:58;2.13;;;1.33;;
50092;SDS011;35974;47.752;10.290;2022-11-20T12:08:06;2.10;;;1.30;;
50092;SDS011;35974;47.752;10.290;2022-11-20T12:10:44;2.30;;;1.38;;
50092;SDS011;35974;47.752;10.290;2022-11-20T12:15:56;1.40;;;1.13;;
50092;SDS011;35974;47.752;10.290;2022-11-20T12:18:22;2.05;;;1.35;;
50092;SDS011;35974;47.752;10.290;2022-11-20T12:21:35;2.72;;;1.23;;
50092;SDS011;35974;47.752;10.290;2022-11-20T12:45:10;2.75;;;1.10;;
50092;SDS011;35974;47.752;10.290;2022-11-20T12:57:18;2.00;;;1.10;;
50092;SDS011;35974;47.752;10.290;2022-11-20T13:00:18;3.00;;;1.48;;
50092;SDS011;35974;47.752;10.290;2022-11-20T13:08:31;2.75;;;1.80;;
50092;SDS011;35974;47.752;10.290;2022-11-20T13:11:13;3.78;;;1.40;;
50092;SDS011;35974;47.752;10.290;2022-11-20T13:14:07;3.42;;;1.48;;
50092;SDS011;35974;47.752;10.290;2022-11-20T13:17:01;2.45;;;1.45;;
50092;SDS011;35974;47.752;10.290;2022-11-20T13:19:38;3.10;;;1.40;;
50092;SDS011;35974;47.752;10.290;2022-11-20T13:22:05;5.65;;;1.30;;
50092;SDS011;35974;47.752;10.290;2022-11-20T13:24:34;2.55;;;1.73;;
50092;SDS011;35974;47.752;10.290;2022-11-20T13:29:41;4.43;;;1.25;;
50092;SDS011;35974;47.752;10.290;2022-11-20T13:32:20;3.20;;;1.30;;
50092;SDS011;35974;47.752;10.290;2022-11-20T13:34:54;2.45;;;1.45;;
50092;SDS011;35974;47.752;10.290;2022-11-20T13:37:27;1.92;;;1.17;;
50092;SDS011;35974;47.752;10.290;2022-11-20T13:45:54;2.45;;;1.48;;
50092;SDS011;35974;47.752;10.290;2022-11-20T13:48:42;2.17;;;1.08;;
50092;SDS011;35974;47.752;10.290;2022-11-20T13:54:21;1.77;;;1.40;;
50092;SDS011;35974;47.752;10.290;2022-11-20T13:57:06;1.80;;;1.30;;
50092;SDS011;35974;47.752;10.290;2022-11-20T14:00:02;3.37;;;1.60;;
50092;SDS011;35974;47.752;10.290;2022-11-20T14:05:39;3.35;;;1.40;;
50092;SDS011;35974;47.752;10.290;2022-11-20T14:08:19;3.25;;;1.60;;
50092;SDS011;35974;47.752;10.290;2022-11-20T14:11:06;3.88;;;1.70;;
50092;SDS011;35974;47.752;10.290;2022-11-20T14:14:01;3.78;;;1.58;;
50092;SDS011;35974;47.752;10.290;2022-11-20T14:16:36;2.10;;;1.45;;
50092;SDS011;35974;47.752;10.290;2022-11-20T14:22:15;3.67;;;1.60;;
50092;SDS011;35974;47.752;10.290;2022-11-20T14:24:45;4.45;;;1.63;;
50092;SDS011;35974;47.752;10.290;2022-11-20T14:29:47;4.55;;;1.50;;
50092;SDS011;35974;47.752;10.290;2022-11-20T14:32:25;2.65;;;1.50;;
50092;SDS011;35974;47.752;10.290;2022-11-20T14:35:13;3.45;;;1.27;;
50092;SDS011;35974;47.752;10.290;2022-11-20T14:37:50;1.70;;;1.30;;
50092;SDS011;35974;47.752;10.290;2022-11-20T14:40:22;1.77;;;1.55;;
50092;SDS011;35974;47.752;10.290;2022-11-20T14:42:57;3.08;;;1.60;;
50092;SDS011;35974;47.752;10.290;2022-11-20T14:45:34;4.03;;;1.73;;
50092;SDS011;35974;47.752;10.290;2022-11-20T14:48:03;9.65;;;3.28;;
50092;SDS011;35974;47.752;10.290;2022-11-20T14:55:56;4.57;;;1.92;;
50092;SDS011;35974;47.752;10.290;2022-11-20T14:58:30;2.38;;;1.58;;
50092;SDS011;35974;47.752;10.290;2022-11-20T15:01:06;2.03;;;1.30;;
50092;SDS011;35974;47.752;10.290;2022-11-20T15:03:37;2.67;;;1.50;;
50092;SDS011;35974;47.752;10.290;2022-11-20T15:06:12;2.65;;;1.60;;
50092;SDS011;35974;47.752;10.290;2022-11-20T15:11:25;3.25;;;1.90;;
50092;SDS011;35974;47.752;10.290;2022-11-20T15:14:05;2.85;;;1.73;;
50092;SDS011;35974;47.752;10.290;2022-11-20T15:16:33;2.70;;;1.70;;
50092;SDS011;35974;47.752;10.290;2022-11-20T15:19:02;3.13;;;2.30;;
50092;SDS011;35974;47.752;10.290;2022-11-20T15:21:33;3.60;;;2.28;;
50092;SDS011;35974;47.752;10.290;2022-11-20T15:24:08;3.88;;;2.58;;
50092;SDS011;35974;47.752;10.290;2022-11-20T15:26:35;4.22;;;2.80;;
50092;SDS011;35974;47.752;10.290;2022-11-20T15:29:03;6.40;;;3.08;;
50092;SDS011;35974;47.752;10.290;2022-11-20T15:31:39;7.10;;;3.25;;
50092;SDS011;35974;47.752;10.290;2022-11-20T15:34:11;8.95;;;3.83;;
50092;SDS011;35974;47.752;10.290;2022-11-20T15:36:39;6.57;;;4.10;;
50092;SDS011;35974;47.752;10.290;2022-11-20T15:39:06;7.40;;;3.40;;
50092;SDS011;35974;47.752;10.290;2022-11-20T15:41:35;5.43;;;2.45;;
50092;SDS011;35974;47.752;10.290;2022-11-20T15:44:03;4.93;;;2.55;;
50092;SDS011;35974;47.752;10.290;2022-11-20T15:46:33;4.85;;;2.67;;
50092;SDS011;35974;47.752;10.290;2022-11-20T15:49:06;5.07;;;2.10;;
50092;SDS011;35974;47.752;10.290;2022-11-20T15:51:38;4.55;;;2.53;;
50092;SDS011;35974;47.752;10.290;2022-11-20T15:56:54;4.63;;;2.70;;
50092;SDS011;35974;47.752;10.290;2022-11-20T15:59:20;6.40;;;3.55;;
50092;SDS011;35974;47.752;10.290;2022-11-20T16:01:47;4.05;;;2.58;;
50092;SDS011;35974;47.752;10.290;2022-11-20T16:04:14;7.25;;;3.10;;
50092;SDS011;35974;47.752;10.290;2022-11-20T16:06:53;5.22;;;2.58;;
50092;SDS011;35974;47.752;10.290;2022-11-20T16:09:19;3.95;;;1.85;;
50092;SDS011;35974;47.752;10.290;2022-11-20T16:11:58;6.10;;;3.15;;
50092;SDS011;35974;47.752;10.290;2022-11-20T16:14:25;9.18;;;5.45;;
50092;SDS011;35974;47.752;10.290;2022-11-20T16:17:15;13.80;;;8.57;;
50092;SDS011;35974;47.752;10.290;2022-11-20T16:20:03;10.35;;;6.38;;
50092;SDS011;35974;47.752;10.290;2022-11-20T16:22:30;7.68;;;4.70;;
50092;SDS011;35974;47.752;10.290;2022-11-20T16:24:57;7.80;;;4.65;;
50092;SDS011;35974;47.752;10.290;2022-11-20T16:27:23;10.45;;;4.97;;
50092;SDS011;35974;47.752;10.290;2022-11-20T16:29:51;9.02;;;5.32;;
50092;SDS011;35974;47.752;10.290;2022-11-20T16:32:18;10.63;;;6.38;;
50092;SDS011;35974;47.752;10.290;2022-11-20T16:34:49;15.02;;;7.20;;
50092;SDS011;35974;47.752;10.290;2022-11-20T16:37:18;24.75;;;10.90;;
50092;SDS011;35974;47.752;10.290;2022-11-20T16:42:17;79.32;;;28.40;;
50092;SDS011;35974;47.752;10.290;2022-11-20T16:44:45;78.50;;;30.40;;
50092;SDS011;35974;47.752;10.290;2022-11-20T16:47:11;40.92;;;18.65;;
50092;SDS011;35974;47.752;10.290;2022-11-20T16:49:41;22.10;;;10.07;;
50092;SDS011;35974;47.752;10.290;2022-11-20T16:52:08;16.38;;;7.32;;
50092;SDS011;35974;47.752;10.290;2022-11-20T16:54:34;7.55;;;4.25;;
50092;SDS011;35974;47.752;10.290;2022-11-20T16:57:01;5.55;;;2.80;;
50092;SDS011;35974;47.752;10.290;2022-11-20T16:59:27;4.55;;;2.80;;
50092;SDS011;35974;47.752;10.290;2022-11-20T17:01:55;6.35;;;2.75;;
50092;SDS011;35974;47.752;10.290;2022-11-20T17:04:22;5.93;;;2.70;;
50092;SDS011;35974;47.752;10.290;2022-11-20T17:06:55;4.22;;;2.60;;
50092;SDS011;35974;47.752;10.290;2022-11-20T17:09:21;5.93;;;3.20;;
50092;SDS011;35974;47.752;10.290;2022-11-20T17:11:47;6.82;;;3.33;;
50092;SDS011;35974;47.752;10.290;2022-11-20T17:14:14;5.63;;;3.28;;
50092;SDS011;35974;47.752;10.290;2022-11-20T17:16:41;12.30;;;4.03;;
50092;SDS011;35974;47.752;10.290;2022-11-20T17:19:08;8.00;;;3.55;;
50092;SDS011;35974;47.752;10.290;2022-11-20T17:21:36;9.10;;;3.10;;
50092;SDS011;35974;47.752;10.290;2022-11-20T17:24:08;8.80;;;3.85;;
50092;SDS011;35974;47.752;10.290;2022-11-20T17:26:38;12.35;;;4.65;;
50092;SDS011;35974;47.752;10.290;2022-11-20T17:29:07;11.13;;;5.28;;
50092;SDS011;35974;47.752;10.290;2022-11-20T17:31:36;7.43;;;5.10;;
50092;SDS011;35974;47.752;10.290;2022-11-20T17:34:07;7.28;;;4.53;;
50092;SDS011;35974;47.752;10.290;2022-11-20T17:36:36;8.98;;;5.10;;
50092;SDS011;35974;47.752;10.290;2022-11-20T17:39:11;15.68;;;7.78;;
50092;SDS011;35974;47.752;10.290;2022-11-20T17:41:44;12.43;;;6.68;;
50092;SDS011;35974;47.752;10.290;2022-11-20T17:44:31;6.40;;;4.10;;
50092;SDS011;35974;47.752;10.290;2022-11-20T17:46:58;7.25;;;3.65;;
50092;SDS011;35974;47.752;10.290;2022-11-20T17:49:25;4.90;;;3.88;;
50092;SDS011;35974;47.752;10.290;2022-11-20T17:51:51;4.55;;;3.22;;
50092;SDS011;35974;47.752;10.290;2022-11-20T17:54:17;6.05;;;3.38;;